sensor_id;sensor_type;location;lat;lon;timestamp;P1;durP1;ratioP1;P2;durP2;ratioP2
72813;SDS011;60945;48.516;-2.768;2022-07-24T00:01:47;3.10;;;1.27;;
72813;SDS011;60945;48.516;-2.768;2022-07-24T00:04:13;1.75;;;1.20;;
72813;SDS011;60945;48.516;-2.768;2022-07-24T00:06:38;2.20;;;1.15;;
72813;SDS011;60945;48.516;-2.768;2022-07-24T00:09:04;1.10;;;1.00;;
72813;SDS011;60945;48.516;-2.768;2022-07-24T00:11:30;3.60;;;1.42;;
72813;SDS011;60945;48.516;-2.768;2022-07-24T00:13:56;2.00;;;1.23;;
72813;SDS011;60945;48.516;-2.768;2022-07-24T00:16:22;1.95;;;1.13;;
72813;SDS011;60945;48.516;-2.768;2022-07-24T00:18:48;1.45;;;0.88;;
72813;SDS011;60945;48.516;-2.768;2022-07-24T00:21:13;2.03;;;1.30;;
72813;SDS011;60945;48.516;-2.768;2022-07-24T00:23:39;1.20;;;1.10;;
72813;SDS011;60945;48.516;-2.768;2022-07-24T00:26:04;1.63;;;0.98;;
72813;SDS011;60945;48.516;-2.768;2022-07-24T00:28:30;1.13;;;0.80;;
72813;SDS011;60945;48.516;-2.768;2022-07-24T00:30:56;1.40;;;0.95;;
72813;SDS011;60945;48.516;-2.768;2022-07-24T00:33:22;1.10;;;1.00;;
72813;SDS011;60945;48.516;-2.768;2022-07-24T00:35:47;1.27;;;1.17;;
72813;SDS011;60945;48.516;-2.768;2022-07-24T00:38:13;2.05;;;1.23;;
72813;SDS011;60945;48.516;-2.768;2022-07-24T00:40:39;1.67;;;1.20;;
72813;SDS011;60945;48.516;-2.768;2022-07-24T00:43:04;1.65;;;1.15;;
72813;SDS011;60945;48.516;-2.768;2022-07-24T00:45:30;1.92;;;1.00;;
72813;SDS011;60945;48.516;-2.768;2022-07-24T00:47:56;0.88;;;0.88;;
72813;SDS011;60945;48.516;-2.768;2022-07-24T00:50:21;3.20;;;1.08;;
72813;SDS011;60945;48.516;-2.768;2022-07-24T00:52:47;0.73;;;0.73;;
72813;SDS011;60945;48.516;-2.768;2022-07-24T00:55:14;1.00;;;0.90;;
72813;SDS011;60945;48.516;-2.768;2022-07-24T00:57:40;2.35;;;1.20;;
72813;SDS011;60945;48.516;-2.768;2022-07-24T01:00:09;2.25;;;0.90;;
72813;SDS011;60945;48.516;-2.768;2022-07-24T01:02:35;1.20;;;0.98;;
72813;SDS011;60945;48.516;-2.768;2022-07-24T01:05:04;2.05;;;1.30;;
72813;SDS011;60945;48.516;-2.768;2022-07-24T01:07:31;1.80;;;1.00;;
72813;SDS011;60945;48.516;-2.768;2022-07-24T01:09:56;0.80;;;0.80;;
72813;SDS011;60945;48.516;-2.768;2022-07-24T01:12:22;1.10;;;1.05;;
72813;SDS011;60945;48.516;-2.768;2022-07-24T01:14:48;2.15;;;1.10;;
72813;SDS011;60945;48.516;-2.768;2022-07-24T01:17:14;1.00;;;0.90;;
72813;SDS011;60945;48.516;-2.768;2022-07-24T01:19:39;1.98;;;1.02;;
72813;SDS011;60945;48.516;-2.768;2022-07-24T01:22:05;2.00;;;1.35;;
72813;SDS011;60945;48.516;-2.768;2022-07-24T01:24:31;0.93;;;0.88;;
72813;SDS011;60945;48.516;-2.768;2022-07-24T01:26:56;2.00;;;1.10;;
72813;SDS011;60945;48.516;-2.768;2022-07-24T01:29:22;5.88;;;1.35;;
72813;SDS011;60945;48.516;-2.768;2022-07-24T01:31:48;1.83;;;1.20;;
72813;SDS011;60945;48.516;-2.768;2022-07-24T01:34:13;1.75;;;1.23;;
72813;SDS011;60945;48.516;-2.768;2022-07-24T01:36:39;2.60;;;1.02;;
72813;SDS011;60945;48.516;-2.768;2022-07-24T01:39:05;1.85;;;1.10;;
72813;SDS011;60945;48.516;-2.768;2022-07-24T01:41:30;1.10;;;1.00;;
72813;SDS011;60945;48.516;-2.768;2022-07-24T01:43:56;1.88;;;1.38;;
72813;SDS011;60945;48.516;-2.768;2022-07-24T01:46:22;1.85;;;1.20;;
72813;SDS011;60945;48.516;-2.768;2022-07-24T01:48:47;1.88;;;1.17;;
72813;SDS011;60945;48.516;-2.768;2022-07-24T01:51:13;1.17;;;1.08;;
72813;SDS011;60945;48.516;-2.768;2022-07-24T01:53:39;2.10;;;1.10;;
72813;SDS011;60945;48.516;-2.768;2022-07-24T01:56:04;3.75;;;1.23;;
72813;SDS011;60945;48.516;-2.768;2022-07-24T01:58:30;1.40;;;1.20;;
72813;SDS011;60945;48.516;-2.768;2022-07-24T02:00:56;1.35;;;1.25;;
72813;SDS011;60945;48.516;-2.768;2022-07-24T02:03:24;1.92;;;1.00;;
72813;SDS011;60945;48.516;-2.768;2022-07-24T02:05:49;1.80;;;1.30;;
72813;SDS011;60945;48.516;-2.768;2022-07-24T02:08:15;1.50;;;1.13;;
72813;SDS011;60945;48.516;-2.768;2022-07-24T02:10:41;1.15;;;1.05;;
72813;SDS011;60945;48.516;-2.768;2022-07-24T02:13:06;1.65;;;1.55;;
72813;SDS011;60945;48.516;-2.768;2022-07-24T02:15:32;4.20;;;1.83;;
72813;SDS011;60945;48.516;-2.768;2022-07-24T02:17:59;2.53;;;1.40;;
72813;SDS011;60945;48.516;-2.768;2022-07-24T02:20:26;2.50;;;1.45;;
72813;SDS011;60945;48.516;-2.768;2022-07-24T02:22:52;1.20;;;1.20;;
72813;SDS011;60945;48.516;-2.768;2022-07-24T02:25:18;7.22;;;1.75;;
72813;SDS011;60945;48.516;-2.768;2022-07-24T02:27:44;2.53;;;1.42;;
72813;SDS011;60945;48.516;-2.768;2022-07-24T02:30:14;3.63;;;1.73;;
72813;SDS011;60945;48.516;-2.768;2022-07-24T02:32:41;2.03;;;1.48;;
72813;SDS011;60945;48.516;-2.768;2022-07-24T02:35:07;3.92;;;1.80;;
72813;SDS011;60945;48.516;-2.768;2022-07-24T02:37:37;3.83;;;1.83;;
72813;SDS011;60945;48.516;-2.768;2022-07-24T02:40:04;1.17;;;1.08;;
72813;SDS011;60945;48.516;-2.768;2022-07-24T02:42:31;1.92;;;1.60;;
72813;SDS011;60945;48.516;-2.768;2022-07-24T02:44:57;3.63;;;1.45;;
72813;SDS011;60945;48.516;-2.768;2022-07-24T02:47:22;1.42;;;1.33;;
72813;SDS011;60945;48.516;-2.768;2022-07-24T02:49:48;2.05;;;1.40;;
72813;SDS011;60945;48.516;-2.768;2022-07-24T02:52:13;2.75;;;1.40;;
72813;SDS011;60945;48.516;-2.768;2022-07-24T02:54:39;1.50;;;1.40;;
72813;SDS011;60945;48.516;-2.768;2022-07-24T02:57:05;2.88;;;1.30;;
72813;SDS011;60945;48.516;-2.768;2022-07-24T02:59:31;1.52;;;1.30;;
72813;SDS011;60945;48.516;-2.768;2022-07-24T03:01:57;2.92;;;1.33;;
72813;SDS011;60945;48.516;-2.768;2022-07-24T03:04:22;1.38;;;1.23;;
72813;SDS011;60945;48.516;-2.768;2022-07-24T03:06:48;1.23;;;1.13;;
72813;SDS011;60945;48.516;-2.768;2022-07-24T03:09:14;1.42;;;1.33;;
72813;SDS011;60945;48.516;-2.768;2022-07-24T03:11:39;2.67;;;1.15;;
72813;SDS011;60945;48.516;-2.768;2022-07-24T03:14:05;1.73;;;1.38;;
72813;SDS011;60945;48.516;-2.768;2022-07-24T03:16:31;2.35;;;1.33;;
72813;SDS011;60945;48.516;-2.768;2022-07-24T03:18:56;2.15;;;1.83;;
72813;SDS011;60945;48.516;-2.768;2022-07-24T03:21:23;1.40;;;1.02;;
72813;SDS011;60945;48.516;-2.768;2022-07-24T03:23:48;3.10;;;1.20;;
72813;SDS011;60945;48.516;-2.768;2022-07-24T03:26:14;2.05;;;1.58;;
72813;SDS011;60945;48.516;-2.768;2022-07-24T03:28:39;1.40;;;1.15;;
72813;SDS011;60945;48.516;-2.768;2022-07-24T03:31:05;2.00;;;0.93;;
72813;SDS011;60945;48.516;-2.768;2022-07-24T03:33:31;2.00;;;1.38;;
72813;SDS011;60945;48.516;-2.768;2022-07-24T03:35:56;4.68;;;1.45;;
72813;SDS011;60945;48.516;-2.768;2022-07-24T03:38:22;1.40;;;1.30;;
72813;SDS011;60945;48.516;-2.768;2022-07-24T03:40:48;1.67;;;1.33;;
72813;SDS011;60945;48.516;-2.768;2022-07-24T03:43:13;1.67;;;1.33;;
72813;SDS011;60945;48.516;-2.768;2022-07-24T03:45:39;1.20;;;1.10;;
72813;SDS011;60945;48.516;-2.768;2022-07-24T03:48:05;1.70;;;1.00;;
72813;SDS011;60945;48.516;-2.768;2022-07-24T03:50:31;1.45;;;1.35;;
72813;SDS011;60945;48.516;-2.768;2022-07-24T03:52:56;1.70;;;1.30;;
72813;SDS011;60945;48.516;-2.768;2022-07-24T03:55:22;1.88;;;1.15;;
72813;SDS011;60945;48.516;-2.768;2022-07-24T03:57:48;1.80;;;1.10;;
72813;SDS011;60945;48.516;-2.768;2022-07-24T04:00:14;1.30;;;1.20;;
72813;SDS011;60945;48.516;-2.768;2022-07-24T04:02:40;2.42;;;1.45;;
72813;SDS011;60945;48.516;-2.768;2022-07-24T04:05:06;1.80;;;1.05;;
72813;SDS011;60945;48.516;-2.768;2022-07-24T04:07:34;1.75;;;1.33;;
72813;SDS011;60945;48.516;-2.768;2022-07-24T04:10:03;4.15;;;1.40;;
72813;SDS011;60945;48.516;-2.768;2022-07-24T04:12:30;1.42;;;1.33;;
72813;SDS011;60945;48.516;-2.768;2022-07-24T04:14:56;3.20;;;1.58;;
72813;SDS011;60945;48.516;-2.768;2022-07-24T04:17:22;2.60;;;1.10;;
72813;SDS011;60945;48.516;-2.768;2022-07-24T04:19:47;1.45;;;1.30;;
72813;SDS011;60945;48.516;-2.768;2022-07-24T04:22:13;1.40;;;1.20;;
72813;SDS011;60945;48.516;-2.768;2022-07-24T04:24:39;1.85;;;1.20;;
72813;SDS011;60945;48.516;-2.768;2022-07-24T04:27:04;1.20;;;1.10;;
72813;SDS011;60945;48.516;-2.768;2022-07-24T04:29:30;2.33;;;1.25;;
72813;SDS011;60945;48.516;-2.768;2022-07-24T04:31:56;1.90;;;1.00;;
72813;SDS011;60945;48.516;-2.768;2022-07-24T04:34:21;2.60;;;1.20;;
72813;SDS011;60945;48.516;-2.768;2022-07-24T04:36:47;1.80;;;1.48;;
72813;SDS011;60945;48.516;-2.768;2022-07-24T04:39:13;2.55;;;2.20;;
72813;SDS011;60945;48.516;-2.768;2022-07-24T04:41:39;1.38;;;1.27;;
72813;SDS011;60945;48.516;-2.768;2022-07-24T04:44:04;1.17;;;1.10;;
72813;SDS011;60945;48.516;-2.768;2022-07-24T04:46:30;2.90;;;1.30;;
72813;SDS011;60945;48.516;-2.768;2022-07-24T04:48:56;1.20;;;1.08;;
72813;SDS011;60945;48.516;-2.768;2022-07-24T04:51:22;2.38;;;1.30;;
72813;SDS011;60945;48.516;-2.768;2022-07-24T04:53:47;2.45;;;1.20;;
72813;SDS011;60945;48.516;-2.768;2022-07-24T04:56:13;1.73;;;1.15;;
72813;SDS011;60945;48.516;-2.768;2022-07-24T04:58:39;1.50;;;1.40;;
72813;SDS011;60945;48.516;-2.768;2022-07-24T05:01:05;1.35;;;1.25;;
72813;SDS011;60945;48.516;-2.768;2022-07-24T05:03:31;2.15;;;1.95;;
72813;SDS011;60945;48.516;-2.768;2022-07-24T05:05:57;1.45;;;0.93;;
72813;SDS011;60945;48.516;-2.768;2022-07-24T05:08:22;2.78;;;1.60;;
72813;SDS011;60945;48.516;-2.768;2022-07-24T05:10:48;2.08;;;1.63;;
72813;SDS011;60945;48.516;-2.768;2022-07-24T05:13:13;3.58;;;1.23;;
72813;SDS011;60945;48.516;-2.768;2022-07-24T05:15:39;1.60;;;1.23;;
72813;SDS011;60945;48.516;-2.768;2022-07-24T05:18:05;2.70;;;1.40;;
72813;SDS011;60945;48.516;-2.768;2022-07-24T05:20:30;3.42;;;1.00;;
72813;SDS011;60945;48.516;-2.768;2022-07-24T05:22:56;2.00;;;1.27;;
72813;SDS011;60945;48.516;-2.768;2022-07-24T05:25:22;1.65;;;1.17;;
72813;SDS011;60945;48.516;-2.768;2022-07-24T05:27:47;2.10;;;1.60;;
72813;SDS011;60945;48.516;-2.768;2022-07-24T05:30:13;1.60;;;1.27;;
72813;SDS011;60945;48.516;-2.768;2022-07-24T05:32:39;4.60;;;1.55;;
72813;SDS011;60945;48.516;-2.768;2022-07-24T05:35:04;2.72;;;1.63;;
72813;SDS011;60945;48.516;-2.768;2022-07-24T05:37:30;1.40;;;1.30;;
72813;SDS011;60945;48.516;-2.768;2022-07-24T05:39:56;2.97;;;1.50;;
72813;SDS011;60945;48.516;-2.768;2022-07-24T05:42:22;3.38;;;1.50;;
72813;SDS011;60945;48.516;-2.768;2022-07-24T05:44:47;3.97;;;1.40;;
72813;SDS011;60945;48.516;-2.768;2022-07-24T05:47:13;2.15;;;1.52;;
72813;SDS011;60945;48.516;-2.768;2022-07-24T05:49:39;1.88;;;1.23;;
72813;SDS011;60945;48.516;-2.768;2022-07-24T05:52:04;1.13;;;1.02;;
72813;SDS011;60945;48.516;-2.768;2022-07-24T05:54:30;1.15;;;0.93;;
72813;SDS011;60945;48.516;-2.768;2022-07-24T05:56:55;2.15;;;1.50;;
72813;SDS011;60945;48.516;-2.768;2022-07-24T05:59:21;1.23;;;1.13;;
72813;SDS011;60945;48.516;-2.768;2022-07-24T06:01:47;2.67;;;1.45;;
72813;SDS011;60945;48.516;-2.768;2022-07-24T06:04:12;2.58;;;1.08;;
72813;SDS011;60945;48.516;-2.768;2022-07-24T06:06:38;1.35;;;1.27;;
72813;SDS011;60945;48.516;-2.768;2022-07-24T06:09:04;2.03;;;1.25;;
72813;SDS011;60945;48.516;-2.768;2022-07-24T06:11:29;2.75;;;1.58;;
72813;SDS011;60945;48.516;-2.768;2022-07-24T06:13:55;1.83;;;1.30;;
72813;SDS011;60945;48.516;-2.768;2022-07-24T06:16:21;6.65;;;1.15;;
72813;SDS011;60945;48.516;-2.768;2022-07-24T06:18:46;2.03;;;1.10;;
72813;SDS011;60945;48.516;-2.768;2022-07-24T06:21:12;1.15;;;1.00;;
72813;SDS011;60945;48.516;-2.768;2022-07-24T06:23:38;1.60;;;1.15;;
72813;SDS011;60945;48.516;-2.768;2022-07-24T06:26:03;3.80;;;1.05;;
72813;SDS011;60945;48.516;-2.768;2022-07-24T06:28:29;1.38;;;1.20;;
72813;SDS011;60945;48.516;-2.768;2022-07-24T06:30:55;1.88;;;1.10;;
72813;SDS011;60945;48.516;-2.768;2022-07-24T06:33:22;0.82;;;0.82;;
72813;SDS011;60945;48.516;-2.768;2022-07-24T06:35:47;0.70;;;0.70;;
72813;SDS011;60945;48.516;-2.768;2022-07-24T06:38:13;1.75;;;0.80;;
72813;SDS011;60945;48.516;-2.768;2022-07-24T06:40:41;2.70;;;0.93;;
72813;SDS011;60945;48.516;-2.768;2022-07-24T06:43:06;2.15;;;0.77;;
72813;SDS011;60945;48.516;-2.768;2022-07-24T06:45:32;1.75;;;0.68;;
72813;SDS011;60945;48.516;-2.768;2022-07-24T06:48:01;1.63;;;0.70;;
72813;SDS011;60945;48.516;-2.768;2022-07-24T06:52:54;1.05;;;0.63;;
72813;SDS011;60945;48.516;-2.768;2022-07-24T06:55:19;0.90;;;0.90;;
72813;SDS011;60945;48.516;-2.768;2022-07-24T06:57:45;1.13;;;0.73;;
72813;SDS011;60945;48.516;-2.768;2022-07-24T07:00:11;0.95;;;0.70;;
72813;SDS011;60945;48.516;-2.768;2022-07-24T07:02:37;2.35;;;0.88;;
72813;SDS011;60945;48.516;-2.768;2022-07-24T07:05:04;1.33;;;0.60;;
72813;SDS011;60945;48.516;-2.768;2022-07-24T07:07:31;1.60;;;0.60;;
72813;SDS011;60945;48.516;-2.768;2022-07-24T07:09:56;2.25;;;0.70;;
72813;SDS011;60945;48.516;-2.768;2022-07-24T07:12:22;0.88;;;0.77;;
72813;SDS011;60945;48.516;-2.768;2022-07-24T07:14:48;0.70;;;0.60;;
72813;SDS011;60945;48.516;-2.768;2022-07-24T07:17:14;0.70;;;0.60;;
72813;SDS011;60945;48.516;-2.768;2022-07-24T07:19:41;0.30;;;0.30;;
72813;SDS011;60945;48.516;-2.768;2022-07-24T07:22:07;1.10;;;0.60;;
72813;SDS011;60945;48.516;-2.768;2022-07-24T07:24:33;0.52;;;0.50;;
72813;SDS011;60945;48.516;-2.768;2022-07-24T07:26:59;0.75;;;0.68;;
72813;SDS011;60945;48.516;-2.768;2022-07-24T07:29:24;1.23;;;0.60;;
72813;SDS011;60945;48.516;-2.768;2022-07-24T07:31:50;1.30;;;0.80;;
72813;SDS011;60945;48.516;-2.768;2022-07-24T07:34:16;0.93;;;0.70;;
72813;SDS011;60945;48.516;-2.768;2022-07-24T07:36:41;1.70;;;0.50;;
72813;SDS011;60945;48.516;-2.768;2022-07-24T07:39:07;1.13;;;0.40;;
72813;SDS011;60945;48.516;-2.768;2022-07-24T07:41:33;0.75;;;0.75;;
72813;SDS011;60945;48.516;-2.768;2022-07-24T07:43:58;0.50;;;0.50;;
72813;SDS011;60945;48.516;-2.768;2022-07-24T07:46:24;1.20;;;0.77;;
72813;SDS011;60945;48.516;-2.768;2022-07-24T07:48:50;0.93;;;0.63;;
72813;SDS011;60945;48.516;-2.768;2022-07-24T07:51:16;1.58;;;0.60;;
72813;SDS011;60945;48.516;-2.768;2022-07-24T07:53:42;0.60;;;0.60;;
72813;SDS011;60945;48.516;-2.768;2022-07-24T07:56:08;0.80;;;0.80;;
72813;SDS011;60945;48.516;-2.768;2022-07-24T07:58:33;0.50;;;0.50;;
72813;SDS011;60945;48.516;-2.768;2022-07-24T08:00:59;0.57;;;0.40;;
72813;SDS011;60945;48.516;-2.768;2022-07-24T08:03:25;2.25;;;0.70;;
72813;SDS011;60945;48.516;-2.768;2022-07-24T08:05:50;0.65;;;0.60;;
72813;SDS011;60945;48.516;-2.768;2022-07-24T08:08:16;0.50;;;0.50;;
72813;SDS011;60945;48.516;-2.768;2022-07-24T08:10:42;1.67;;;0.55;;
72813;SDS011;60945;48.516;-2.768;2022-07-24T08:13:08;0.80;;;0.50;;
72813;SDS011;60945;48.516;-2.768;2022-07-24T08:15:34;0.60;;;0.60;;
72813;SDS011;60945;48.516;-2.768;2022-07-24T08:17:59;0.65;;;0.63;;
72813;SDS011;60945;48.516;-2.768;2022-07-24T08:20:26;1.48;;;0.82;;
72813;SDS011;60945;48.516;-2.768;2022-07-24T08:22:52;0.80;;;0.80;;
72813;SDS011;60945;48.516;-2.768;2022-07-24T08:25:18;1.75;;;1.10;;
72813;SDS011;60945;48.516;-2.768;2022-07-24T08:27:43;1.20;;;0.60;;
72813;SDS011;60945;48.516;-2.768;2022-07-24T08:30:09;0.60;;;0.60;;
72813;SDS011;60945;48.516;-2.768;2022-07-24T08:32:36;0.68;;;0.50;;
72813;SDS011;60945;48.516;-2.768;2022-07-24T08:35:03;1.42;;;0.55;;
72813;SDS011;60945;48.516;-2.768;2022-07-24T08:37:29;1.05;;;0.57;;
72813;SDS011;60945;48.516;-2.768;2022-07-24T08:39:54;1.20;;;0.77;;
72813;SDS011;60945;48.516;-2.768;2022-07-24T08:42:21;1.33;;;0.60;;
72813;SDS011;60945;48.516;-2.768;2022-07-24T08:44:47;0.70;;;0.70;;
72813;SDS011;60945;48.516;-2.768;2022-07-24T08:47:13;1.17;;;0.50;;
72813;SDS011;60945;48.516;-2.768;2022-07-24T08:49:40;1.58;;;0.80;;
72813;SDS011;60945;48.516;-2.768;2022-07-24T08:52:07;0.75;;;0.50;;
72813;SDS011;60945;48.516;-2.768;2022-07-24T08:54:34;0.52;;;0.52;;
72813;SDS011;60945;48.516;-2.768;2022-07-24T08:57:00;0.65;;;0.45;;
72813;SDS011;60945;48.516;-2.768;2022-07-24T08:59:29;1.70;;;0.90;;
72813;SDS011;60945;48.516;-2.768;2022-07-24T09:01:55;0.60;;;0.52;;
72813;SDS011;60945;48.516;-2.768;2022-07-24T09:04:40;1.20;;;0.50;;
72813;SDS011;60945;48.516;-2.768;2022-07-24T09:07:11;0.50;;;0.50;;
72813;SDS011;60945;48.516;-2.768;2022-07-24T09:09:38;0.43;;;0.43;;
72813;SDS011;60945;48.516;-2.768;2022-07-24T09:12:09;1.25;;;0.52;;
72813;SDS011;60945;48.516;-2.768;2022-07-24T09:14:38;0.75;;;0.68;;
72813;SDS011;60945;48.516;-2.768;2022-07-24T09:17:12;0.65;;;0.65;;
72813;SDS011;60945;48.516;-2.768;2022-07-24T09:22:25;0.70;;;0.45;;
72813;SDS011;60945;48.516;-2.768;2022-07-24T09:27:46;0.95;;;0.60;;
72813;SDS011;60945;48.516;-2.768;2022-07-24T09:30:24;1.00;;;0.80;;
72813;SDS011;60945;48.516;-2.768;2022-07-24T09:33:08;1.15;;;0.70;;
72813;SDS011;60945;48.516;-2.768;2022-07-24T09:35:47;1.50;;;0.50;;
72813;SDS011;60945;48.516;-2.768;2022-07-24T09:38:18;1.45;;;0.50;;
72813;SDS011;60945;48.516;-2.768;2022-07-24T09:40:47;2.47;;;0.60;;
72813;SDS011;60945;48.516;-2.768;2022-07-24T09:43:20;0.88;;;0.43;;
72813;SDS011;60945;48.516;-2.768;2022-07-24T09:46:08;0.77;;;0.70;;
72813;SDS011;60945;48.516;-2.768;2022-07-24T09:48:35;0.87;;;0.70;;
72813;SDS011;60945;48.516;-2.768;2022-07-24T09:51:09;0.65;;;0.60;;
72813;SDS011;60945;48.516;-2.768;2022-07-24T09:53:39;0.70;;;0.70;;
72813;SDS011;60945;48.516;-2.768;2022-07-24T09:56:09;1.15;;;0.73;;
72813;SDS011;60945;48.516;-2.768;2022-07-24T09:58:39;0.80;;;0.80;;
72813;SDS011;60945;48.516;-2.768;2022-07-24T10:01:11;2.88;;;1.00;;
72813;SDS011;60945;48.516;-2.768;2022-07-24T10:03:39;0.75;;;0.75;;
72813;SDS011;60945;48.516;-2.768;2022-07-24T10:06:06;1.20;;;0.75;;
72813;SDS011;60945;48.516;-2.768;2022-07-24T10:08:38;1.30;;;0.70;;
72813;SDS011;60945;48.516;-2.768;2022-07-24T10:11:05;0.80;;;0.80;;
72813;SDS011;60945;48.516;-2.768;2022-07-24T10:13:31;0.60;;;0.60;;
72813;SDS011;60945;48.516;-2.768;2022-07-24T10:18:43;1.63;;;0.82;;
72813;SDS011;60945;48.516;-2.768;2022-07-24T10:21:19;1.25;;;0.75;;
72813;SDS011;60945;48.516;-2.768;2022-07-24T10:29:06;1.13;;;0.50;;
72813;SDS011;60945;48.516;-2.768;2022-07-24T10:31:39;1.00;;;0.88;;
72813;SDS011;60945;48.516;-2.768;2022-07-24T10:37:01;0.60;;;0.60;;
72813;SDS011;60945;48.516;-2.768;2022-07-24T10:39:58;0.55;;;0.55;;
72813;SDS011;60945;48.516;-2.768;2022-07-24T10:42:27;1.60;;;0.60;;
72813;SDS011;60945;48.516;-2.768;2022-07-24T10:47:39;1.38;;;0.52;;
72813;SDS011;60945;48.516;-2.768;2022-07-24T10:50:05;0.55;;;0.55;;
72813;SDS011;60945;48.516;-2.768;2022-07-24T10:52:32;0.60;;;0.60;;
72813;SDS011;60945;48.516;-2.768;2022-07-24T10:57:49;0.57;;;0.57;;
72813;SDS011;60945;48.516;-2.768;2022-07-24T11:01:26;0.60;;;0.60;;
72813;SDS011;60945;48.516;-2.768;2022-07-24T11:03:21;0.60;;;0.60;;
72813;SDS011;60945;48.516;-2.768;2022-07-24T11:08:30;1.45;;;0.70;;
72813;SDS011;60945;48.516;-2.768;2022-07-24T11:10:59;1.95;;;0.70;;
72813;SDS011;60945;48.516;-2.768;2022-07-24T11:26:40;1.60;;;0.63;;
72813;SDS011;60945;48.516;-2.768;2022-07-24T11:29:19;0.85;;;0.55;;
72813;SDS011;60945;48.516;-2.768;2022-07-24T11:31:50;0.60;;;0.60;;
72813;SDS011;60945;48.516;-2.768;2022-07-24T11:34:18;1.38;;;0.80;;
72813;SDS011;60945;48.516;-2.768;2022-07-24T11:36:45;0.80;;;0.60;;
72813;SDS011;60945;48.516;-2.768;2022-07-24T11:39:17;0.60;;;0.60;;
72813;SDS011;60945;48.516;-2.768;2022-07-24T11:41:50;2.80;;;0.60;;
72813;SDS011;60945;48.516;-2.768;2022-07-24T11:46:53;0.60;;;0.60;;
72813;SDS011;60945;48.516;-2.768;2022-07-24T11:49:22;2.03;;;0.90;;
72813;SDS011;60945;48.516;-2.768;2022-07-24T11:51:48;1.80;;;1.00;;
72813;SDS011;60945;48.516;-2.768;2022-07-24T11:54:19;1.48;;;0.75;;
72813;SDS011;60945;48.516;-2.768;2022-07-24T11:56:47;0.82;;;0.65;;
72813;SDS011;60945;48.516;-2.768;2022-07-24T12:02:09;1.08;;;0.80;;
72813;SDS011;60945;48.516;-2.768;2022-07-24T12:04:37;0.85;;;0.85;;
72813;SDS011;60945;48.516;-2.768;2022-07-24T12:07:08;0.80;;;0.80;;
72813;SDS011;60945;48.516;-2.768;2022-07-24T12:09:49;2.03;;;1.92;;
72813;SDS011;60945;48.516;-2.768;2022-07-24T12:14:46;1.10;;;1.10;;
72813;SDS011;60945;48.516;-2.768;2022-07-24T12:17:12;1.00;;;1.00;;
72813;SDS011;60945;48.516;-2.768;2022-07-24T12:19:38;2.10;;;1.35;;
72813;SDS011;60945;48.516;-2.768;2022-07-24T12:22:03;1.42;;;1.02;;
72813;SDS011;60945;48.516;-2.768;2022-07-24T12:24:30;1.95;;;1.25;;
72813;SDS011;60945;48.516;-2.768;2022-07-24T12:26:59;1.55;;;1.00;;
72813;SDS011;60945;48.516;-2.768;2022-07-24T12:29:26;2.40;;;1.35;;
72813;SDS011;60945;48.516;-2.768;2022-07-24T12:31:53;1.25;;;1.15;;
72813;SDS011;60945;48.516;-2.768;2022-07-24T12:34:47;1.77;;;1.10;;
72813;SDS011;60945;48.516;-2.768;2022-07-24T12:37:16;0.93;;;0.93;;
72813;SDS011;60945;48.516;-2.768;2022-07-24T12:39:50;1.05;;;1.00;;
72813;SDS011;60945;48.516;-2.768;2022-07-24T12:42:39;1.20;;;1.20;;
72813;SDS011;60945;48.516;-2.768;2022-07-24T12:45:08;1.75;;;1.50;;
72813;SDS011;60945;48.516;-2.768;2022-07-24T12:47:35;1.70;;;1.70;;
72813;SDS011;60945;48.516;-2.768;2022-07-24T12:50:50;2.10;;;2.00;;
72813;SDS011;60945;48.516;-2.768;2022-07-24T12:53:29;2.20;;;2.10;;
72813;SDS011;60945;48.516;-2.768;2022-07-24T12:56:15;2.70;;;2.60;;
72813;SDS011;60945;48.516;-2.768;2022-07-24T12:58:57;2.60;;;2.50;;
72813;SDS011;60945;48.516;-2.768;2022-07-24T13:01:28;2.75;;;2.65;;
72813;SDS011;60945;48.516;-2.768;2022-07-24T13:04:08;2.88;;;2.70;;
72813;SDS011;60945;48.516;-2.768;2022-07-24T13:06:44;2.25;;;2.22;;
72813;SDS011;60945;48.516;-2.768;2022-07-24T13:09:11;1.83;;;1.80;;
72813;SDS011;60945;48.516;-2.768;2022-07-24T13:11:38;1.90;;;1.80;;
72813;SDS011;60945;48.516;-2.768;2022-07-24T13:14:06;1.70;;;1.60;;
72813;SDS011;60945;48.516;-2.768;2022-07-24T13:16:34;1.73;;;1.65;;
72813;SDS011;60945;48.516;-2.768;2022-07-24T13:19:02;1.73;;;1.70;;
72813;SDS011;60945;48.516;-2.768;2022-07-24T13:21:28;2.00;;;1.90;;
72813;SDS011;60945;48.516;-2.768;2022-07-24T13:23:54;2.00;;;1.90;;
72813;SDS011;60945;48.516;-2.768;2022-07-24T13:26:20;2.30;;;2.20;;
72813;SDS011;60945;48.516;-2.768;2022-07-24T13:28:46;4.13;;;2.70;;
72813;SDS011;60945;48.516;-2.768;2022-07-24T13:31:12;2.70;;;2.60;;
72813;SDS011;60945;48.516;-2.768;2022-07-24T13:33:38;2.70;;;2.28;;
72813;SDS011;60945;48.516;-2.768;2022-07-24T13:36:04;2.45;;;2.35;;
72813;SDS011;60945;48.516;-2.768;2022-07-24T13:38:30;2.60;;;2.20;;
72813;SDS011;60945;48.516;-2.768;2022-07-24T13:40:56;2.50;;;2.40;;
72813;SDS011;60945;48.516;-2.768;2022-07-24T13:43:22;2.50;;;2.40;;
72813;SDS011;60945;48.516;-2.768;2022-07-24T13:45:48;2.75;;;2.65;;
72813;SDS011;60945;48.516;-2.768;2022-07-24T13:48:15;2.70;;;2.60;;
72813;SDS011;60945;48.516;-2.768;2022-07-24T13:50:41;2.88;;;2.78;;
72813;SDS011;60945;48.516;-2.768;2022-07-24T13:53:06;3.10;;;3.00;;
72813;SDS011;60945;48.516;-2.768;2022-07-24T13:55:32;3.60;;;3.50;;
72813;SDS011;60945;48.516;-2.768;2022-07-24T13:57:58;3.88;;;3.67;;
72813;SDS011;60945;48.516;-2.768;2022-07-24T14:00:24;4.10;;;4.00;;
72813;SDS011;60945;48.516;-2.768;2022-07-24T14:02:50;4.78;;;4.47;;
72813;SDS011;60945;48.516;-2.768;2022-07-24T14:05:23;5.18;;;4.88;;
72813;SDS011;60945;48.516;-2.768;2022-07-24T14:07:49;5.47;;;5.28;;
72813;SDS011;60945;48.516;-2.768;2022-07-24T14:10:15;5.88;;;5.50;;
72813;SDS011;60945;48.516;-2.768;2022-07-24T14:12:41;5.47;;;5.10;;
72813;SDS011;60945;48.516;-2.768;2022-07-24T14:15:06;5.28;;;5.03;;
72813;SDS011;60945;48.516;-2.768;2022-07-24T14:17:37;5.30;;;5.10;;
72813;SDS011;60945;48.516;-2.768;2022-07-24T14:20:03;4.82;;;4.70;;
72813;SDS011;60945;48.516;-2.768;2022-07-24T14:22:29;4.90;;;4.70;;
72813;SDS011;60945;48.516;-2.768;2022-07-24T14:24:55;5.78;;;5.40;;
72813;SDS011;60945;48.516;-2.768;2022-07-24T14:27:20;5.82;;;5.63;;
72813;SDS011;60945;48.516;-2.768;2022-07-24T14:29:46;6.75;;;6.53;;
72813;SDS011;60945;48.516;-2.768;2022-07-24T14:32:12;7.50;;;7.20;;
72813;SDS011;60945;48.516;-2.768;2022-07-24T14:34:37;7.03;;;6.72;;
72813;SDS011;60945;48.516;-2.768;2022-07-24T14:37:03;6.00;;;5.80;;
72813;SDS011;60945;48.516;-2.768;2022-07-24T14:39:28;5.00;;;4.80;;
72813;SDS011;60945;48.516;-2.768;2022-07-24T14:41:55;4.60;;;4.40;;
72813;SDS011;60945;48.516;-2.768;2022-07-24T14:44:24;4.10;;;3.95;;
72813;SDS011;60945;48.516;-2.768;2022-07-24T14:46:50;3.20;;;3.10;;
72813;SDS011;60945;48.516;-2.768;2022-07-24T14:49:15;3.00;;;2.90;;
72813;SDS011;60945;48.516;-2.768;2022-07-24T14:51:41;2.72;;;2.50;;
72813;SDS011;60945;48.516;-2.768;2022-07-24T14:54:07;2.00;;;2.00;;
72813;SDS011;60945;48.516;-2.768;2022-07-24T14:56:34;2.00;;;1.90;;
72813;SDS011;60945;48.516;-2.768;2022-07-24T14:59:00;1.80;;;1.80;;
72813;SDS011;60945;48.516;-2.768;2022-07-24T15:01:26;2.58;;;1.83;;
72813;SDS011;60945;48.516;-2.768;2022-07-24T15:03:52;2.60;;;1.60;;
72813;SDS011;60945;48.516;-2.768;2022-07-24T15:06:18;1.70;;;1.60;;
72813;SDS011;60945;48.516;-2.768;2022-07-24T15:08:44;1.48;;;1.48;;
72813;SDS011;60945;48.516;-2.768;2022-07-24T15:11:09;1.63;;;1.52;;
72813;SDS011;60945;48.516;-2.768;2022-07-24T15:13:35;1.70;;;1.70;;
72813;SDS011;60945;48.516;-2.768;2022-07-24T15:16:05;1.83;;;1.73;;
72813;SDS011;60945;48.516;-2.768;2022-07-24T15:18:32;2.03;;;1.65;;
72813;SDS011;60945;48.516;-2.768;2022-07-24T15:20:58;2.72;;;1.63;;
72813;SDS011;60945;48.516;-2.768;2022-07-24T15:23:24;1.92;;;1.83;;